Time;durP1;ratioP1;P1;durP2;ratioP2;P2;SDS_P1;SDS_P2;PMS_P1;PMS_P2;Temp;Humidity;BMP_temperature;BMP_pressure;BME280_temperature;BME280_humidity;BME280_pressure;Samples;Min_cycle;Max_cycle;Signal;HPM_P1;HPM_P2
2023/08/11 00:00:47;;;;;;;7.97;2.77;;;;;;;12.81;100.00;101607.34;5037406;28;20490;-69
2023/08/11 00:03:14;;;;;;;8.60;3.10;;;;;;;12.70;100.00;101606.66;5036774;28;20931;-69
2023/08/11 00:05:41;;;;;;;6.73;2.40;;;;;;;12.71;100.00;101612.94;5036958;28;20967;-69
2023/08/11 00:08:08;;;;;;;7.23;2.60;;;;;;;12.74;100.00;101612.31;5036932;28;20473;-69
2023/08/11 00:10:35;;;;;;;8.60;3.40;;;;;;;12.75;100.00;101606.63;5036884;28;20522;-69
2023/08/11 00:13:03;;;;;;;6.80;2.57;;;;;;;12.72;100.00;101619.97;5036649;28;20474;-69
2023/08/11 00:15:32;;;;;;;6.00;2.27;;;;;;;12.68;100.00;101610.78;5036778;28;20517;-69
2023/08/11 00:18:00;;;;;;;7.40;2.77;;;;;;;12.61;100.00;101613.81;5036808;28;20478;-69
2023/08/11 00:20:27;;;;;;;8.03;3.37;;;;;;;12.65;100.00;101620.31;5036668;28;20526;-69
2023/08/11 00:22:55;;;;;;;7.23;2.23;;;;;;;12.63;100.00;101617.09;5037072;28;20438;-69
2023/08/11 00:25:22;;;;;;;7.83;2.80;;;;;;;12.65;100.00;101616.78;5036265;28;20486;-69
2023/08/11 00:27:48;;;;;;;10.90;3.23;;;;;;;12.66;100.00;101621.94;5036918;28;20531;-69
2023/08/11 00:30:15;;;;;;;7.23;2.40;;;;;;;12.63;100.00;101611.66;5036537;28;20443;-69
2023/08/11 00:32:43;;;;;;;10.23;3.47;;;;;;;12.59;100.00;101616.84;5036541;28;20886;-69
2023/08/11 00:35:11;;;;;;;7.00;2.20;;;;;;;12.63;100.00;101608.94;5036399;28;20467;-69
2023/08/11 00:37:37;;;;;;;8.80;2.90;;;;;;;12.59;100.00;101613.31;5036129;28;20813;-69
2023/08/11 00:40:06;;;;;;;7.80;3.17;;;;;;;12.53;98.63;101606.34;5036446;28;20489;-69
2023/08/11 00:42:33;;;;;;;6.80;2.50;;;;;;;12.45;97.82;101606.97;5036240;28;20482;-69
2023/08/11 00:44:59;;;;;;;6.97;2.50;;;;;;;12.42;98.03;101610.25;5036341;28;20454;-69
2023/08/11 00:47:27;;;;;;;7.63;2.67;;;;;;;12.36;98.52;101606.78;5036590;28;20522;-69
2023/08/11 00:49:55;;;;;;;8.90;2.80;;;;;;;12.30;98.74;101606.00;5036193;28;20542;-69
2023/08/11 00:52:21;;;;;;;6.17;2.37;;;;;;;12.31;100.00;101615.78;5035892;28;20923;-69
2023/08/11 00:54:48;;;;;;;6.63;2.30;;;;;;;12.27;100.00;101617.47;5035788;28;20438;-69
2023/08/11 00:57:15;;;;;;;6.67;2.43;;;;;;;12.25;100.00;101613.41;5036111;28;20465;-69
2023/08/11 00:59:42;;;;;;;8.30;2.90;;;;;;;12.28;100.00;101616.34;5036337;28;20475;-69
2023/08/11 01:02:10;;;;;;;6.73;2.67;;;;;;;12.19;100.00;101623.50;5035580;28;20487;-69
2023/08/11 01:04:37;;;;;;;7.80;2.30;;;;;;;12.22;100.00;101622.13;5035858;28;20439;-69
2023/08/11 01:07:14;;;;;;;10.00;2.57;;;;;;;12.20;100.00;101630.56;5035962;28;21030;-69
2023/08/11 01:09:49;;;;;;;6.50;2.40;;;;;;;12.27;100.00;101622.09;5035018;28;20514;-69
2023/08/11 01:12:25;;;;;;;6.57;2.20;;;;;;;12.24;100.00;101628.88;5035408;28;20533;-69
2023/08/11 01:15:00;;;;;;;8.43;2.60;;;;;;;12.26;100.00;101631.31;5035682;28;20512;-69
2023/08/11 01:17:28;;;;;;;7.17;3.00;;;;;;;12.27;100.00;101635.66;5035428;28;20423;-69
2023/08/11 01:19:55;;;;;;;5.67;2.00;;;;;;;12.25;100.00;101630.50;5035987;28;20522;-69
2023/08/11 01:22:27;;;;;;;6.97;2.37;;;;;;;12.20;100.00;101625.13;5035976;28;20501;-69
2023/08/11 01:24:56;;;;;;;7.10;2.50;;;;;;;12.20;100.00;101625.13;5035234;28;20967;-69
2023/08/11 01:27:23;;;;;;;6.80;2.80;;;;;;;12.16;100.00;101620.56;5035516;28;20526;-69
2023/08/11 01:29:49;;;;;;;8.33;2.70;;;;;;;12.16;100.00;101621.34;5035464;28;20443;-69
2023/08/11 01:32:16;;;;;;;9.20;2.47;;;;;;;12.20;100.00;101619.69;5035448;28;20522;-69
2023/08/11 01:34:43;;;;;;;6.60;2.50;;;;;;;12.18;100.00;101616.47;5035242;28;20447;-69
2023/08/11 01:37:09;;;;;;;10.73;3.30;;;;;;;12.23;100.00;101621.84;5035300;28;20526;-69
2023/08/11 01:39:36;;;;;;;6.63;2.47;;;;;;;12.16;100.00;101620.56;5034962;28;20436;-69
2023/08/11 01:42:05;;;;;;;11.27;2.90;;;;;;;12.16;100.00;101615.13;5035187;28;20577;-69
2023/08/11 01:44:33;;;;;;;6.70;2.20;;;;;;;12.11;100.00;101608.63;5034805;28;20444;-69
2023/08/11 01:47:00;;;;;;;7.47;2.37;;;;;;;12.11;100.00;101615.97;5035315;28;20537;-69
2023/08/11 01:49:27;;;;;;;5.97;2.20;;;;;;;12.09;100.00;101618.19;5035097;28;20500;-69
2023/08/11 01:51:55;;;;;;;7.77;2.33;;;;;;;12.05;100.00;101614.41;5035076;28;20439;-69
2023/08/11 01:54:22;;;;;;;8.83;3.00;;;;;;;12.01;100.00;101624.22;5035137;28;20539;-69
2023/08/11 01:56:49;;;;;;;7.47;2.37;;;;;;;12.08;100.00;101625.50;5035253;28;21010;-69
2023/08/11 01:59:17;;;;;;;12.43;3.10;;;;;;;12.08;100.00;101620.06;5034935;28;20517;-69
2023/08/11 02:01:44;;;;;;;6.80;2.53;;;;;;;12.07;100.00;101621.16;5034817;28;20569;-69
2023/08/11 02:04:10;;;;;;;6.67;2.30;;;;;;;12.13;100.00;101621.94;5035171;28;20447;-69
2023/08/11 02:06:39;;;;;;;6.80;2.17;;;;;;;12.17;100.00;101614.81;5034384;28;20543;-68
2023/08/11 02:09:08;;;;;;;7.40;2.50;;;;;;;12.19;100.00;101620.78;5034440;28;20451;-68
2023/08/11 02:11:37;;;;;;;7.80;2.60;;;;;;;12.27;100.00;101620.19;5034242;28;21009;-68
2023/08/11 02:14:04;;;;;;;8.20;2.37;;;;;;;12.31;100.00;101613.06;5034647;28;20440;-68
2023/08/11 02:16:33;;;;;;;7.20;2.60;;;;;;;12.31;100.00;101620.41;5034275;28;20470;-68
2023/08/11 02:18:59;;;;;;;6.50;2.30;;;;;;;12.30;100.00;101618.78;5034262;28;20454;-68
2023/08/11 02:21:27;;;;;;;5.50;1.73;;;;;;;12.27;98.61;101614.75;5034384;28;20483;-68
2023/08/11 02:23:54;;;;;;;8.33;2.77;;;;;;;12.25;97.97;101614.19;5034578;28;20439;-68
2023/08/11 02:26:21;;;;;;;10.20;2.47;;;;;;;12.25;97.43;101616.91;5034040;28;20876;-68
2023/08/11 02:28:48;;;;;;;7.03;2.30;;;;;;;12.25;98.40;101613.41;5034768;28;20526;-68
2023/08/11 02:31:14;;;;;;;7.13;2.37;;;;;;;12.18;99.60;101616.47;5034024;28;20478;-68
2023/08/11 02:33:42;;;;;;;8.40;2.70;;;;;;;12.27;100.00;101612.03;5034751;28;20441;-68
2023/08/11 02:36:09;;;;;;;5.97;1.67;;;;;;;12.30;100.00;101611.44;5034203;28;20486;-68
2023/08/11 02:38:36;;;;;;;7.47;2.27;;;;;;;12.38;100.00;101620.88;5034531;28;20521;-68
2023/08/11 02:41:04;;;;;;;5.90;1.73;;;;;;;12.45;100.00;101615.13;5034071;28;20493;-68
2023/08/11 02:43:31;;;;;;;6.30;1.97;;;;;;;12.48;100.00;101615.31;5034477;28;20804;-68
2023/08/11 02:45:57;;;;;;;7.30;2.30;;;;;;;12.50;100.00;101613.13;5033834;28;20917;-69
2023/08/11 02:48:24;;;;;;;7.30;2.37;;;;;;;12.50;100.00;101613.13;5034054;28;20534;-71
2023/08/11 02:50:52;;;;;;;5.30;1.60;;;;;;;12.58;100.00;101620.66;5034108;28;20535;-70
2023/08/11 02:53:18;;;;;;;7.10;2.07;;;;;;;12.65;100.00;101625.75;5033669;28;20435;-70
2023/08/11 02:55:45;;;;;;;7.87;2.00;;;;;;;12.70;100.00;101622.97;5034251;28;21006;-70
2023/08/11 02:58:12;;;;;;;21.43;2.13;;;;;;;12.75;100.00;101609.34;5033885;28;20534;-69
2023/08/11 03:00:39;;;;;;;6.67;2.37;;;;;;;12.75;100.00;101603.91;5033848;28;20446;-69
2023/08/11 03:03:05;;;;;;;8.77;2.67;;;;;;;12.78;100.00;101608.72;5033742;28;20483;-69
2023/08/11 03:05:32;;;;;;;7.80;2.30;;;;;;;12.82;100.00;101615.22;5033683;28;20524;-69
2023/08/11 03:08:00;;;;;;;6.03;1.87;;;;;;;12.92;100.00;101617.00;5033736;28;20536;-69
2023/08/11 03:10:27;;;;;;;6.07;2.07;;;;;;;12.98;100.00;101607.69;5034015;28;20493;-69
2023/08/11 03:12:55;;;;;;;8.93;2.03;;;;;;;13.01;100.00;101604.34;5033653;28;20447;-69
2023/08/11 03:15:23;;;;;;;6.33;1.97;;;;;;;13.05;100.00;101599.97;5033481;28;21014;-69
2023/08/11 03:17:50;;;;;;;6.57;2.70;;;;;;;13.06;100.00;101593.44;5034053;28;20469;-69
2023/08/11 03:20:18;;;;;;;7.03;1.80;;;;;;;13.11;100.00;101601.53;5033562;28;20462;-69
2023/08/11 03:22:45;;;;;;;7.43;2.20;;;;;;;13.12;100.00;101591.44;5033755;28;20483;-69
2023/08/11 03:25:13;;;;;;;8.23;2.03;;;;;;;13.17;100.00;101591.38;5033708;28;20469;-69
2023/08/11 03:27:41;;;;;;;7.10;2.27;;;;;;;13.20;100.00;101598.97;5033489;28;20448;-69
2023/08/11 03:30:10;;;;;;;6.60;2.30;;;;;;;13.26;100.00;101605.97;5033501;28;20442;-69
2023/08/11 03:32:38;;;;;;;9.70;2.23;;;;;;;13.22;100.00;101604.94;5036000;28;20788;-69
2023/08/11 03:35:05;;;;;;;5.50;1.80;;;;;;;13.24;100.00;101607.38;5039665;28;20455;-69
2023/08/11 03:37:32;;;;;;;6.73;2.10;;;;;;;13.26;100.00;101597.00;5040051;28;20446;-69
2023/08/11 03:39:59;;;;;;;6.97;2.40;;;;;;;13.28;100.00;101595.63;5039685;28;20951;-69
2023/08/11 03:42:27;;;;;;;5.40;1.93;;;;;;;13.37;100.00;101601.19;5039818;28;20851;-70
2023/08/11 03:44:54;;;;;;;6.23;1.90;;;;;;;13.36;100.00;101602.28;5040174;28;20465;-70
2023/08/11 03:47:21;;;;;;;7.93;2.43;;;;;;;13.38;100.00;101603.63;5039942;28;20529;-70
2023/08/11 03:49:47;;;;;;;6.70;2.40;;;;;;;13.35;100.00;101597.94;5039545;28;20449;-70
2023/08/11 03:52:14;;;;;;;7.00;2.47;;;;;;;13.41;100.00;101601.41;5039908;28;20439;-70
2023/08/11 03:54:40;;;;;;;6.67;2.67;;;;;;;13.43;100.00;101600.00;5039819;28;20443;-70
2023/08/11 03:57:07;;;;;;;6.47;1.83;;;;;;;13.42;100.00;101606.56;5039551;28;20958;-70
2023/08/11 03:59:36;;;;;;;6.70;2.10;;;;;;;13.34;100.00;101604.50;5040105;28;20450;-70
2023/08/11 04:02:02;;;;;;;6.63;2.10;;;;;;;13.38;100.00;101611.78;5039932;28;20955;-70
2023/08/11 04:04:29;;;;;;;5.97;1.90;;;;;;;13.34;100.00;101605.31;5039754;28;20443;-70
2023/08/11 04:06:56;;;;;;;6.90;2.20;;;;;;;13.31;100.00;101600.44;5039668;28;20893;-70
2023/08/11 04:09:22;;;;;;;7.13;2.03;;;;;;;13.25;100.00;101604.34;5039744;28;20442;-70
2023/08/11 04:11:49;;;;;;;6.07;1.97;;;;;;;13.20;99.86;101598.97;5039483;28;20887;-70
2023/08/11 04:14:16;;;;;;;6.57;2.20;;;;;;;13.14;99.97;101608.28;5039622;28;20439;-70
2023/08/11 04:16:44;;;;;;;8.23;2.50;;;;;;;13.04;100.00;101606.50;5039620;28;20546;-70
2023/08/11 04:19:11;;;;;;;6.63;2.10;;;;;;;13.05;100.00;101605.41;5039593;28;20471;-70
2023/08/11 04:21:39;;;;;;;7.57;2.17;;;;;;;13.02;100.00;101606.00;5039103;28;20534;-70
2023/08/11 04:24:06;;;;;;;8.30;2.23;;;;;;;13.03;100.00;101602.16;5039565;28;20443;-70
2023/08/11 04:26:33;;;;;;;7.07;2.10;;;;;;;13.07;100.00;101605.13;5039538;28;20532;-70
2023/08/11 04:29:01;;;;;;;8.47;1.93;;;;;;;13.06;100.00;101606.22;5040037;28;20443;-70
2023/08/11 04:31:27;;;;;;;5.73;1.53;;;;;;;13.09;100.00;101605.63;5039555;28;20458;-70
2023/08/11 04:33:55;;;;;;;6.03;1.83;;;;;;;13.12;100.00;101599.59;5039569;28;20877;-70
2023/08/11 04:36:22;;;;;;;5.23;1.63;;;;;;;13.11;100.00;101606.16;5039452;28;20551;-70
2023/08/11 04:38:49;;;;;;;6.33;2.23;;;;;;;13.08;100.00;101607.53;5039873;28;20453;-70
2023/08/11 04:41:16;;;;;;;9.30;1.93;;;;;;;13.12;100.00;101613.22;5039523;28;20521;-70
2023/08/11 04:43:42;;;;;;;10.50;2.43;;;;;;;13.18;100.00;101617.47;5037986;28;20590;-70
2023/08/11 04:46:09;;;;;;;7.27;3.13;;;;;;;13.20;100.00;101609.84;5035914;28;20498;-70
2023/08/11 04:48:35;;;;;;;6.53;2.00;;;;;;;13.20;100.00;101618.00;5036263;28;20435;-70
2023/08/11 04:51:04;;;;;;;7.70;2.40;;;;;;;13.24;100.00;101621.78;5036302;28;20500;-70
2023/08/11 04:53:31;;;;;;;6.63;2.20;;;;;;;13.29;100.00;101618.19;5035862;28;20945;-70
2023/08/11 04:55:57;;;;;;;7.00;1.97;;;;;;;13.38;100.00;101616.41;5036065;28;20495;-70
2023/08/11 04:58:24;;;;;;;6.33;1.93;;;;;;;13.41;100.00;101621.25;5036092;28;20441;-70
2023/08/11 05:00:50;;;;;;;7.20;2.20;;;;;;;13.42;100.00;101627.53;5035920;28;20440;-70
2023/08/11 05:03:18;;;;;;;6.97;2.07;;;;;;;13.47;100.00;101627.44;5035897;28;20573;-70
2023/08/11 05:05:45;;;;;;;8.70;2.40;;;;;;;13.52;100.00;101627.38;5035832;28;20460;-70
2023/08/11 05:08:13;;;;;;;6.17;2.27;;;;;;;13.62;100.00;101628.03;5035887;28;20950;-70
2023/08/11 05:10:40;;;;;;;7.90;2.57;;;;;;;13.77;100.00;101623.47;5035810;28;20550;-71
2023/08/11 05:13:06;;;;;;;6.47;2.33;;;;;;;13.92;100.00;101636.00;5035492;28;20534;-71
2023/08/11 05:15:33;;;;;;;8.70;2.40;;;;;;;14.00;100.00;101627.16;5035760;28;20993;-69
2023/08/11 05:18:00;;;;;;;7.57;2.80;;;;;;;14.02;100.00;101625.75;5035576;28;20450;-69
2023/08/11 05:20:26;;;;;;;9.10;3.13;;;;;;;14.10;100.00;101629.72;5035718;28;20493;-69
2023/08/11 05:22:53;;;;;;;6.00;2.00;;;;;;;14.22;100.00;101632.78;5035835;28;20593;-69
2023/08/11 05:25:21;;;;;;;7.10;2.77;;;;;;;14.31;100.00;101644.59;5035486;28;20555;-69
2023/08/11 05:27:48;;;;;;;9.10;3.23;;;;;;;14.43;100.00;101643.28;5035484;28;20447;-69
2023/08/11 05:30:15;;;;;;;7.87;3.00;;;;;;;14.55;100.00;101649.09;5035490;28;20444;-69
2023/08/11 05:32:42;;;;;;;8.40;3.00;;;;;;;14.70;100.00;101637.91;5035482;28;20435;-69
2023/08/11 05:35:09;;;;;;;8.03;2.43;;;;;;;14.86;100.00;101639.19;5035367;28;20459;-69
2023/08/11 05:37:37;;;;;;;6.93;2.57;;;;;;;15.02;100.00;101649.81;5035301;28;20479;-70
2023/08/11 05:40:06;;;;;;;7.40;2.23;;;;;;;15.18;100.00;101651.09;5035454;28;20440;-69
2023/08/11 05:42:34;;;;;;;6.27;2.10;;;;;;;15.31;100.00;101650.25;5034929;28;21056;-69
2023/08/11 05:45:00;;;;;;;8.30;2.80;;;;;;;15.47;100.00;101648.00;5034837;28;21031;-71
2023/08/11 05:47:27;;;;;;;8.47;2.93;;;;;;;15.62;100.00;101649.56;5034944;28;20530;-72
2023/08/11 05:49:54;;;;;;;6.90;2.47;;;;;;;15.73;100.00;101647.44;5035139;28;20530;-70
2023/08/11 05:52:21;;;;;;;9.50;3.07;;;;;;;15.86;100.00;101650.13;5035016;28;21004;-70
2023/08/11 05:54:47;;;;;;;7.03;2.57;;;;;;;15.96;100.00;101648.25;5035132;28;20526;-70
2023/08/11 05:57:14;;;;;;;7.30;2.47;;;;;;;16.07;100.00;101647.69;5034572;28;20475;-70
2023/08/11 05:59:42;;;;;;;7.30;2.37;;;;;;;16.21;100.00;101655.03;5034981;28;20526;-70
2023/08/11 06:02:08;;;;;;;7.60;2.67;;;;;;;16.31;100.00;101649.28;5034853;28;20529;-71
2023/08/11 06:04:36;;;;;;;6.80;2.30;;;;;;;16.39;100.00;101657.53;5034731;28;20873;-71
2023/08/11 06:07:03;;;;;;;7.90;2.47;;;;;;;16.51;100.00;101654.22;5034934;28;20915;-68
2023/08/11 06:09:30;;;;;;;6.70;2.63;;;;;;;16.60;100.00;101663.28;5034772;28;20558;-69
2023/08/11 06:11:56;;;;;;;6.50;2.60;;;;;;;16.69;100.00;101652.38;5034605;28;20505;-73
2023/08/11 06:14:23;;;;;;;6.90;2.07;;;;;;;16.79;100.00;101652.09;5034687;28;20867;-70
2023/08/11 06:16:51;;;;;;;6.83;1.90;;;;;;;16.88;100.00;101652.94;5034529;28;20459;-70
2023/08/11 06:19:17;;;;;;;12.23;2.47;;;;;;;16.98;100.00;101661.97;5034712;28;20813;-71
2023/08/11 06:21:45;;;;;;;7.93;2.20;;;;;;;17.04;100.00;101657.97;5034506;28;20926;-72
2023/08/11 06:24:12;;;;;;;6.40;1.87;;;;;;;17.12;98.50;101657.97;5034414;28;20487;-71
2023/08/11 06:26:38;;;;;;;9.13;2.70;;;;;;;17.20;97.46;101663.81;5034671;28;20558;-70
2023/08/11 06:29:05;;;;;;;6.57;2.40;;;;;;;17.28;96.52;101661.09;5034198;28;20497;-70
2023/08/11 06:31:32;;;;;;;6.90;2.10;;;;;;;17.35;94.76;101668.81;5034346;28;20439;-69
2023/08/11 06:34:01;;;;;;;5.37;1.60;;;;;;;17.39;93.60;101667.84;5034044;28;20526;-69
2023/08/11 06:36:28;;;;;;;6.23;2.07;;;;;;;17.48;92.54;101672.53;5033900;28;20494;-69
2023/08/11 06:38:54;;;;;;;6.10;1.63;;;;;;;17.56;92.28;101677.22;5034526;28;20459;-69
2023/08/11 06:41:21;;;;;;;6.03;2.00;;;;;;;17.60;91.40;101679.00;5034465;28;20518;-69
2023/08/11 06:43:48;;;;;;;6.47;1.80;;;;;;;17.66;90.03;101693.34;5034117;28;21010;-72
2023/08/11 06:46:15;;;;;;;8.37;2.40;;;;;;;17.67;90.14;101688.69;5034243;28;20538;-72
2023/08/11 06:48:41;;;;;;;7.10;2.10;;;;;;;17.76;91.31;101704.03;5034029;28;20529;-72
2023/08/11 06:51:09;;;;;;;6.60;2.10;;;;;;;17.81;91.40;101697.56;5034124;28;20527;-71
2023/08/11 06:53:36;;;;;;;7.33;1.60;;;;;;;17.88;90.98;101701.47;5033940;28;20522;-72
2023/08/11 06:56:03;;;;;;;7.17;1.83;;;;;;;17.97;91.77;101703.34;5033828;28;20521;-72
2023/08/11 06:58:30;;;;;;;9.57;1.83;;;;;;;17.98;91.66;101700.31;5033883;28;20443;-72
2023/08/11 07:00:57;;;;;;;7.33;2.57;;;;;;;18.06;91.28;101705.00;5033839;28;20447;-72
2023/08/11 07:03:23;;;;;;;5.30;1.47;;;;;;;18.08;91.01;101710.13;5034133;28;20839;-72
2023/08/11 07:05:51;;;;;;;6.10;1.90;;;;;;;18.07;90.43;101698.38;5033775;28;20898;-72
2023/08/11 07:08:19;;;;;;;6.13;2.03;;;;;;;18.22;90.18;101704.47;5032854;28;20812;-72
2023/08/11 07:10:46;;;;;;;5.70;1.80;;;;;;;18.30;90.55;101700.91;5034206;28;20999;-72
2023/08/11 07:13:12;;;;;;;6.57;2.57;;;;;;;18.44;89.81;101696.03;5033441;28;20530;-72
2023/08/11 07:15:40;;;;;;;7.77;2.67;;;;;;;18.55;90.14;101699.22;5033928;28;20553;-72
2023/08/11 07:18:06;;;;;;;7.63;1.97;;;;;;;18.66;91.51;101690.31;5033569;28;20450;-72
2023/08/11 07:20:33;;;;;;;5.67;2.00;;;;;;;18.73;91.22;101691.78;5034038;28;20961;-72
2023/08/11 07:23:00;;;;;;;6.23;1.60;;;;;;;18.73;89.55;101691.78;5033254;28;20486;-72
2023/08/11 07:25:28;;;;;;;6.47;1.80;;;;;;;18.71;88.23;101703.06;5033949;28;20496;-72
2023/08/11 07:27:55;;;;;;;7.30;1.87;;;;;;;18.74;85.89;101699.69;5033905;28;20447;-72
2023/08/11 07:30:22;;;;;;;10.57;2.20;;;;;;;18.78;83.27;101711.63;5034281;28;20502;-72
2023/08/11 07:32:48;;;;;;;5.67;1.47;;;;;;;18.87;83.31;101712.38;5033523;28;20522;-72
2023/08/11 07:35:15;;;;;;;10.70;2.03;;;;;;;18.99;83.00;101700.72;5033176;28;20891;-71
2023/08/11 07:37:41;;;;;;;8.13;2.30;;;;;;;19.09;82.04;101707.75;5033172;28;20508;-71
2023/08/11 07:40:09;;;;;;;8.93;1.97;;;;;;;19.06;82.80;101705.66;5033503;28;20494;-71
2023/08/11 07:42:37;;;;;;;9.00;1.80;;;;;;;19.14;83.74;101711.13;5033625;28;20478;-72
2023/08/11 07:45:05;;;;;;;6.10;1.27;;;;;;;19.12;83.94;101707.91;5033613;28;20463;-71
2023/08/11 07:47:31;;;;;;;14.33;2.43;;;;;;;19.11;83.42;101709.03;5033485;28;20442;-72
2023/08/11 07:49:58;;;;;;;6.50;1.77;;;;;;;19.15;84.27;101704.47;5033320;28;20497;-71
2023/08/11 07:52:25;;;;;;;6.17;1.83;;;;;;;19.12;82.45;101704.34;5033603;28;20489;-71
2023/08/11 07:54:51;;;;;;;5.83;1.73;;;;;;;19.21;79.75;101713.34;5032930;28;20816;-71
2023/08/11 07:57:18;;;;;;;5.73;1.50;;;;;;;19.28;78.93;101713.63;5033222;28;20445;-71
2023/08/11 07:59:46;;;;;;;10.13;1.73;;;;;;;19.28;77.63;101707.34;5033199;28;20533;-72
2023/08/11 08:02:13;;;;;;;6.20;1.53;;;;;;;19.28;78.79;101707.34;5033775;28;20434;-74
2023/08/11 08:04:40;;;;;;;5.17;1.53;;;;;;;19.25;80.15;101697.78;5033005;28;20482;-71
2023/08/11 08:07:07;;;;;;;6.37;1.50;;;;;;;19.15;79.09;101709.19;5032911;28;20907;-70
2023/08/11 08:09:33;;;;;;;5.30;1.23;;;;;;;19.19;77.55;101701.88;5033170;28;20531;-70
2023/08/11 08:12:01;;;;;;;6.00;1.20;;;;;;;19.16;78.15;101705.28;5033032;28;21001;-70
2023/08/11 08:14:28;;;;;;;5.23;1.50;;;;;;;19.27;77.59;101700.22;5033200;28;20439;-70
2023/08/11 08:16:56;;;;;;;8.30;1.70;;;;;;;19.34;76.72;101700.50;5033379;28;20498;-70
2023/08/11 08:19:22;;;;;;;7.70;1.73;;;;;;;19.45;73.92;101706.41;5035290;28;20458;-70
2023/08/11 08:21:49;;;;;;;6.57;2.10;;;;;;;19.56;73.11;101711.16;5036787;28;20536;-70
2023/08/11 08:24:16;;;;;;;5.60;1.47;;;;;;;19.62;71.04;101700.84;5037296;28;20525;-70
2023/08/11 08:26:43;;;;;;;5.90;1.40;;;;;;;19.69;72.08;101697.53;5036789;28;20528;-70
2023/08/11 08:29:11;;;;;;;5.20;1.33;;;;;;;19.76;71.75;101701.34;5036665;28;20484;-70
2023/08/11 08:31:37;;;;;;;4.73;1.30;;;;;;;19.84;70.23;101699.69;5036636;28;20858;-70
2023/08/11 08:34:05;;;;;;;6.20;1.30;;;;;;;19.96;68.53;101704.41;5036543;28;20463;-70
2023/08/11 08:36:32;;;;;;;5.70;1.43;;;;;;;20.04;68.69;101707.09;5037102;28;20510;-70
2023/08/11 08:38:58;;;;;;;7.83;1.87;;;;;;;20.14;70.05;101697.59;5036166;28;21005;-70
2023/08/11 08:41:28;;;;;;;7.20;1.57;;;;;;;20.28;70.19;101700.09;5036535;28;20549;-70
2023/08/11 08:43:55;;;;;;;5.50;1.43;;;;;;;20.40;68.53;101711.09;5036319;28;20570;-70
2023/08/11 08:46:28;;;;;;;4.60;1.10;;;;;;;20.58;68.95;101720.00;5036327;28;20546;-70
2023/08/11 08:49:05;;;;;;;5.50;1.40;;;;;;;20.69;68.51;101714.88;5036422;28;20412;-69
2023/08/11 08:51:34;;;;;;;5.30;1.30;;;;;;;20.66;69.02;101711.66;5036199;28;20449;-70
2023/08/11 08:54:01;;;;;;;5.23;1.40;;;;;;;20.77;66.30;101720.28;5036238;28;20431;-69
2023/08/11 08:56:28;;;;;;;7.73;1.50;;;;;;;20.81;65.90;101718.47;5036285;28;20546;-69
2023/08/11 08:58:55;;;;;;;6.50;1.73;;;;;;;20.85;66.29;101716.63;5036145;28;20498;-69
2023/08/11 09:01:22;;;;;;;4.80;1.30;;;;;;;20.86;65.50;101720.97;5036003;28;20435;-69
2023/08/11 09:03:51;;;;;;;6.43;1.60;;;;;;;20.88;64.83;101713.16;5036037;28;20569;-69
2023/08/11 09:06:19;;;;;;;5.40;1.37;;;;;;;20.98;63.49;101714.66;5035901;28;20463;-69
2023/08/11 09:08:47;;;;;;;4.93;1.10;;;;;;;21.00;64.89;101715.13;5035987;28;20439;-69
2023/08/11 09:11:14;;;;;;;4.90;0.90;;;;;;;20.99;65.07;101718.25;5035797;28;20454;-69
2023/08/11 09:13:40;;;;;;;6.70;1.30;;;;;;;21.01;66.81;101713.97;5036206;28;20962;-69
2023/08/11 09:16:07;;;;;;;4.50;0.93;;;;;;;21.12;66.30;101717.09;5035719;28;20463;-69
2023/08/11 09:18:34;;;;;;;4.60;0.90;;;;;;;21.26;66.53;101722.25;5036088;28;20867;-69
2023/08/11 09:21:02;;;;;;;4.83;1.10;;;;;;;21.47;64.00;101727.63;5035413;28;20445;-69
2023/08/11 09:23:28;;;;;;;6.63;1.30;;;;;;;21.54;62.67;101719.59;5035291;28;20486;-69
2023/08/11 09:25:57;;;;;;;4.90;0.90;;;;;;;21.66;62.70;101725.09;5035733;28;20467;-69
2023/08/11 09:28:23;;;;;;;5.30;1.37;;;;;;;21.93;63.48;101726.25;5035581;28;20509;-70
2023/08/11 09:30:50;;;;;;;5.40;0.93;;;;;;;22.24;61.84;101724.78;5034836;28;20461;-69
2023/08/11 09:33:18;;;;;;;5.20;1.27;;;;;;;22.33;60.89;101742.00;5035847;28;20531;-70
2023/08/11 09:35:44;;;;;;;4.77;1.10;;;;;;;22.48;60.70;101743.97;5035333;28;20480;-70
2023/08/11 09:38:11;;;;;;;5.87;1.47;;;;;;;22.43;59.76;101747.00;5035744;28;20514;-70
2023/08/11 09:40:38;;;;;;;4.83;1.00;;;;;;;22.50;59.70;101751.91;5035373;28;20454;-69
2023/08/11 09:43:06;;;;;;;4.67;1.07;;;;;;;22.54;61.64;101733.47;5035320;28;20537;-69
2023/08/11 09:45:33;;;;;;;5.90;1.33;;;;;;;22.47;61.01;101747.09;5035097;28;21035;-69
2023/08/11 09:48:00;;;;;;;5.47;1.37;;;;;;;22.34;60.74;101738.88;5035340;28;20483;-69
2023/08/11 09:50:28;;;;;;;5.07;1.30;;;;;;;22.45;61.90;101738.38;5035486;28;20439;-69
2023/08/11 09:52:58;;;;;;;6.00;1.40;;;;;;;22.59;62.68;101738.75;5035061;28;20444;-69
2023/08/11 09:55:26;;;;;;;4.80;1.10;;;;;;;22.68;65.64;101739.38;5034965;28;20451;-69
2023/08/11 09:57:55;;;;;;;5.00;1.27;;;;;;;22.83;60.91;101746.84;5034670;28;20439;-69
2023/08/11 10:00:23;;;;;;;11.63;1.93;;;;;;;23.03;60.44;101741.47;5035270;28;20443;-70
2023/08/11 10:02:57;;;;;;;5.87;1.20;;;;;;;23.16;58.76;101746.53;5035025;28;20447;-70
2023/08/11 10:05:26;;;;;;;4.97;0.87;;;;;;;23.20;57.68;101749.38;5035035;28;20582;-70
2023/08/11 10:07:55;;;;;;;6.67;1.03;;;;;;;23.33;58.07;101750.03;5034777;28;20446;-70
2023/08/11 10:10:23;;;;;;;5.10;1.10;;;;;;;23.36;58.05;101750.13;5035172;28;20526;-70
2023/08/11 10:12:57;;;;;;;5.13;1.10;;;;;;;23.18;57.36;101754.44;5034333;28;20542;-69
2023/08/11 10:15:28;;;;;;;5.33;1.40;;;;;;;23.27;57.29;101749.53;5034976;28;20458;-70
2023/08/11 10:17:55;;;;;;;4.70;1.00;;;;;;;23.39;56.48;101741.13;5035069;28;20522;-69
2023/08/11 10:20:22;;;;;;;5.23;1.20;;;;;;;23.52;56.28;101744.59;5034578;28;20439;-68
2023/08/11 10:22:49;;;;;;;5.03;1.13;;;;;;;23.51;56.39;101745.75;5034467;28;20801;-69
2023/08/11 10:25:16;;;;;;;4.03;0.53;;;;;;;23.49;54.34;101744.50;5034476;28;20494;-69
2023/08/11 10:27:44;;;;;;;4.57;0.67;;;;;;;23.52;55.65;101733.53;5034106;28;20930;-69
2023/08/11 10:30:13;;;;;;;4.70;0.80;;;;;;;23.64;54.21;101733.44;5034605;28;20514;-69
2023/08/11 10:32:41;;;;;;;4.00;0.60;;;;;;;23.89;56.38;101733.94;5034370;28;20462;-69
2023/08/11 10:35:13;;;;;;;4.30;0.70;;;;;;;24.15;55.18;101730.50;5033967;28;20459;-69
2023/08/11 10:37:40;;;;;;;4.80;0.87;;;;;;;24.09;52.88;101731.19;5033993;28;20915;-69
2023/08/11 10:40:10;;;;;;;4.97;0.80;;;;;;;24.17;54.36;101727.34;5034194;28;20435;-69
2023/08/11 10:42:37;;;;;;;4.47;0.70;;;;;;;24.09;52.85;101733.94;5033246;28;20419;-69
2023/08/11 10:45:11;;;;;;;4.53;0.67;;;;;;;24.15;53.52;101738.00;5034336;28;20482;-69
2023/08/11 10:47:38;;;;;;;4.80;0.90;;;;;;;24.06;55.01;101731.91;5033790;28;20439;-69
2023/08/11 10:50:09;;;;;;;4.73;0.73;;;;;;;23.95;55.56;101731.69;5034064;28;20455;-69
2023/08/11 10:52:36;;;;;;;5.33;0.83;;;;;;;24.05;54.27;101727.53;5033987;28;20467;-69
2023/08/11 10:55:03;;;;;;;5.43;1.00;;;;;;;24.11;55.11;101724.09;5033593;28;20482;-68
2023/08/11 10:57:31;;;;;;;9.03;0.93;;;;;;;24.17;53.93;101724.59;5033809;28;20435;-68
2023/08/11 10:59:58;;;;;;;4.60;0.73;;;;;;;24.28;52.93;101722.03;5034228;28;20435;-69
2023/08/11 11:02:25;;;;;;;4.20;0.60;;;;;;;24.21;54.20;101727.44;5033829;28;20447;-68
2023/08/11 11:04:53;;;;;;;4.37;0.77;;;;;;;24.30;54.88;101728.78;5034178;28;20973;-69
2023/08/11 11:07:23;;;;;;;4.87;0.70;;;;;;;24.33;54.38;101719.75;5033730;28;20558;-69
2023/08/11 11:09:52;;;;;;;4.63;1.00;;;;;;;24.33;55.77;101724.50;5034136;28;20423;-69
2023/08/11 11:12:19;;;;;;;4.20;0.70;;;;;;;24.47;54.22;101724.00;5033335;28;20462;-69
2023/08/11 11:14:45;;;;;;;5.00;1.27;;;;;;;24.56;53.28;101722.56;5033649;28;20903;-69
2023/08/11 11:17:13;;;;;;;4.33;0.70;;;;;;;24.52;55.45;101726.47;5033597;28;20911;-68
2023/08/11 11:19:39;;;;;;;4.93;0.90;;;;;;;24.69;55.17;101714.09;5033646;28;20451;-69
2023/08/11 11:22:06;;;;;;;4.30;0.70;;;;;;;24.98;53.92;101718.16;5033949;28;20470;-69